sensor_id;sensor_type;location;lat;lon;timestamp;pressure;altitude;pressure_sealevel;temperature;humidity
67457;BME280;54319;52.038;4.640;2023-04-09T00:01:11;102764.16;;;6.39;100.00
67457;BME280;54319;52.038;4.640;2023-04-09T00:03:38;102760.44;;;6.40;100.00
67457;BME280;54319;52.038;4.640;2023-04-09T00:06:05;102750.88;;;6.36;100.00
67457;BME280;54319;52.038;4.640;2023-04-09T00:08:31;102757.03;;;6.38;100.00
67457;BME280;54319;52.038;4.640;2023-04-09T00:10:58;102759.34;;;6.43;100.00
67457;BME280;54319;52.038;4.640;2023-04-09T00:13:26;102744.91;;;6.42;100.00
67457;BME280;54319;52.038;4.640;2023-04-09T00:15:53;102751.91;;;6.45;100.00
67457;BME280;54319;52.038;4.640;2023-04-09T00:18:21;102743.78;;;6.45;100.00
67457;BME280;54319;52.038;4.640;2023-04-09T00:20:47;102748.59;;;6.41;100.00
67457;BME280;54319;52.038;4.640;2023-04-09T00:23:14;102751.47;;;6.40;100.00
67457;BME280;54319;52.038;4.640;2023-04-09T00:25:41;102705.03;;;6.13;100.00
67457;BME280;54319;52.038;4.640;2023-04-09T00:28:08;102750.75;;;6.37;100.00
67457;BME280;54319;52.038;4.640;2023-04-09T00:30:35;102743.63;;;6.36;100.00
67457;BME280;54319;52.038;4.640;2023-04-09T00:33:02;102739.31;;;6.34;100.00
67457;BME280;54319;52.038;4.640;2023-04-09T00:35:29;102742.31;;;6.31;100.00
67457;BME280;54319;52.038;4.640;2023-04-09T00:37:56;102745.00;;;6.31;100.00
67457;BME280;54319;52.038;4.640;2023-04-09T00:40:22;102740.75;;;6.28;100.00
67457;BME280;54319;52.038;4.640;2023-04-09T00:42:49;102738.16;;;6.27;100.00
67457;BME280;54319;52.038;4.640;2023-04-09T00:45:16;102742.84;;;6.25;100.00
67457;BME280;54319;52.038;4.640;2023-04-09T00:47:43;102727.81;;;6.11;100.00
67457;BME280;54319;52.038;4.640;2023-04-09T00:50:10;102737.00;;;6.19;100.00
67457;BME280;54319;52.038;4.640;2023-04-09T00:52:37;102733.84;;;6.14;100.00
67457;BME280;54319;52.038;4.640;2023-04-09T00:55:04;102727.53;;;6.14;100.00
67457;BME280;54319;52.038;4.640;2023-04-09T00:57:31;102720.25;;;6.04;100.00
67457;BME280;54319;52.038;4.640;2023-04-09T00:59:58;102719.38;;;6.04;100.00
67457;BME280;54319;52.038;4.640;2023-04-09T01:02:26;102730.81;;;6.07;100.00
67457;BME280;54319;52.038;4.640;2023-04-09T01:04:54;102729.22;;;6.05;100.00
67457;BME280;54319;52.038;4.640;2023-04-09T01:07:30;102731.19;;;6.03;100.00
67457;BME280;54319;52.038;4.640;2023-04-09T01:09:59;102727.16;;;5.97;100.00
67457;BME280;54319;52.038;4.640;2023-04-09T01:12:32;102715.00;;;5.91;100.00
67457;BME280;54319;52.038;4.640;2023-04-09T01:15:05;102719.44;;;5.92;100.00
67457;BME280;54319;52.038;4.640;2023-04-09T01:17:35;102664.78;;;5.56;100.00
67457;BME280;54319;52.038;4.640;2023-04-09T01:20:09;102723.41;;;5.88;100.00
67457;BME280;54319;52.038;4.640;2023-04-09T01:22:48;102725.41;;;5.86;100.00
67457;BME280;54319;52.038;4.640;2023-04-09T01:25:32;102724.69;;;5.84;100.00
67457;BME280;54319;52.038;4.640;2023-04-09T01:28:14;102723.94;;;5.82;100.00
67457;BME280;54319;52.038;4.640;2023-04-09T01:30:44;102724.22;;;5.79;100.00
67457;BME280;54319;52.038;4.640;2023-04-09T01:33:12;102731.63;;;5.77;100.00
67457;BME280;54319;52.038;4.640;2023-04-09T01:35:41;102723.78;;;5.74;100.00
67457;BME280;54319;52.038;4.640;2023-04-09T01:38:08;102726.97;;;5.68;100.00
67457;BME280;54319;52.038;4.640;2023-04-09T01:40:36;102721.56;;;5.68;100.00
67457;BME280;54319;52.038;4.640;2023-04-09T01:43:04;102729.84;;;5.66;100.00
67457;BME280;54319;52.038;4.640;2023-04-09T01:45:33;102730.13;;;5.63;100.00
67457;BME280;54319;52.038;4.640;2023-04-09T01:48:01;102732.94;;;5.61;100.00
67457;BME280;54319;52.038;4.640;2023-04-09T01:50:28;102724.09;;;5.59;100.00
67457;BME280;54319;52.038;4.640;2023-04-09T01:52:55;102723.09;;;5.60;100.00
67457;BME280;54319;52.038;4.640;2023-04-09T01:55:22;102717.84;;;5.59;100.00
67457;BME280;54319;52.038;4.640;2023-04-09T01:57:49;102734.66;;;5.62;100.00
67457;BME280;54319;52.038;4.640;2023-04-09T02:00:15;102726.25;;;5.65;100.00
67457;BME280;54319;52.038;4.640;2023-04-09T02:02:50;102716.69;;;5.61;100.00
67457;BME280;54319;52.038;4.640;2023-04-09T02:05:19;102728.59;;;5.70;100.00
67457;BME280;54319;52.038;4.640;2023-04-09T02:07:52;102729.19;;;5.74;100.00
67457;BME280;54319;52.038;4.640;2023-04-09T02:10:21;102728.50;;;5.82;100.00
67457;BME280;54319;52.038;4.640;2023-04-09T02:12:50;102730.81;;;5.86;100.00
67457;BME280;54319;52.038;4.640;2023-04-09T02:15:19;102712.25;;;5.82;100.00
67457;BME280;54319;52.038;4.640;2023-04-09T02:17:49;102729.00;;;5.97;100.00
67457;BME280;54319;52.038;4.640;2023-04-09T02:20:16;102722.34;;;6.01;100.00
67457;BME280;54319;52.038;4.640;2023-04-09T02:22:43;102722.94;;;6.04;100.00
67457;BME280;54319;52.038;4.640;2023-04-09T02:25:10;102716.84;;;6.12;100.00
67457;BME280;54319;52.038;4.640;2023-04-09T02:27:37;102714.44;;;6.19;100.00
67457;BME280;54319;52.038;4.640;2023-04-09T02:30:05;102711.91;;;6.27;100.00
67457;BME280;54319;52.038;4.640;2023-04-09T02:32:31;102707.06;;;6.31;100.00
67457;BME280;54319;52.038;4.640;2023-04-09T02:35:00;102705.94;;;6.43;100.00
67457;BME280;54319;52.038;4.640;2023-04-09T02:37:26;102704.84;;;6.56;100.00
67457;BME280;54319;52.038;4.640;2023-04-09T02:39:53;102703.72;;;6.68;100.00
67457;BME280;54319;52.038;4.640;2023-04-09T02:42:19;102698.16;;;6.79;100.00
67457;BME280;54319;52.038;4.640;2023-04-09T02:44:46;102692.34;;;6.94;100.00
67457;BME280;54319;52.038;4.640;2023-04-09T02:47:13;102690.63;;;7.03;100.00
67457;BME280;54319;52.038;4.640;2023-04-09T02:49:39;102701.34;;;7.14;100.00
67457;BME280;54319;52.038;4.640;2023-04-09T02:52:08;102682.63;;;7.21;100.00
67457;BME280;54319;52.038;4.640;2023-04-09T02:54:35;102689.88;;;7.30;100.00
67457;BME280;54319;52.038;4.640;2023-04-09T02:57:01;102685.47;;;7.39;100.00
67457;BME280;54319;52.038;4.640;2023-04-09T02:59:28;102679.56;;;7.44;100.00
67457;BME280;54319;52.038;4.640;2023-04-09T03:01:57;102690.00;;;7.58;100.00
67457;BME280;54319;52.038;4.640;2023-04-09T03:04:23;102679.94;;;7.68;100.00
67457;BME280;54319;52.038;4.640;2023-04-09T03:06:50;102681.66;;;7.70;100.00
67457;BME280;54319;52.038;4.640;2023-04-09T03:09:18;102684.63;;;7.76;100.00
67457;BME280;54319;52.038;4.640;2023-04-09T03:11:45;102689.31;;;7.84;100.00
67457;BME280;54319;52.038;4.640;2023-04-09T03:14:11;102676.44;;;7.86;100.00
67457;BME280;54319;52.038;4.640;2023-04-09T03:16:38;102680.44;;;7.92;100.00
67457;BME280;54319;52.038;4.640;2023-04-09T03:19:05;102680.44;;;7.92;100.00
67457;BME280;54319;52.038;4.640;2023-04-09T03:21:32;102685.84;;;8.02;100.00
67457;BME280;54319;52.038;4.640;2023-04-09T03:23:58;102684.97;;;8.01;99.46
67457;BME280;54319;52.038;4.640;2023-04-09T03:26:27;102683.41;;;7.99;98.66
67457;BME280;54319;52.038;4.640;2023-04-09T03:28:54;102673.97;;;8.03;98.30
67457;BME280;54319;52.038;4.640;2023-04-09T03:31:20;102669.53;;;8.02;98.07
67457;BME280;54319;52.038;4.640;2023-04-09T03:33:47;102668.50;;;8.03;98.02
67457;BME280;54319;52.038;4.640;2023-04-09T03:36:13;102668.91;;;8.08;97.94
67457;BME280;54319;52.038;4.640;2023-04-09T03:38:40;102659.34;;;8.04;97.55
67457;BME280;54319;52.038;4.640;2023-04-09T03:41:07;102604.41;;;7.72;97.31
67457;BME280;54319;52.038;4.640;2023-04-09T03:43:35;102657.03;;;8.09;97.23
67457;BME280;54319;52.038;4.640;2023-04-09T03:46:10;102657.88;;;8.09;97.10
67457;BME280;54319;52.038;4.640;2023-04-09T03:48:37;102663.47;;;8.08;96.59
67457;BME280;54319;52.038;4.640;2023-04-09T03:51:03;102602.13;;;7.77;96.54
67457;BME280;54319;52.038;4.640;2023-04-09T03:53:30;102651.00;;;8.15;96.39
67457;BME280;54319;52.038;4.640;2023-04-09T03:55:56;102660.28;;;8.13;96.37
67457;BME280;54319;52.038;4.640;2023-04-09T03:58:23;102664.59;;;8.15;96.51
67457;BME280;54319;52.038;4.640;2023-04-09T04:00:51;102653.41;;;8.18;96.36
67457;BME280;54319;52.038;4.640;2023-04-09T04:03:17;102659.44;;;8.12;96.88
67457;BME280;54319;52.038;4.640;2023-04-09T04:05:44;102648.72;;;8.10;96.87
67457;BME280;54319;52.038;4.640;2023-04-09T04:08:11;102661.47;;;8.10;96.65
67457;BME280;54319;52.038;4.640;2023-04-09T04:10:38;102661.16;;;8.13;96.64
67457;BME280;54319;52.038;4.640;2023-04-09T04:13:06;102656.13;;;8.18;96.51
67457;BME280;54319;52.038;4.640;2023-04-09T04:15:35;102660.16;;;8.14;96.44
67457;BME280;54319;52.038;4.640;2023-04-09T04:18:05;102652.88;;;8.15;96.05
67457;BME280;54319;52.038;4.640;2023-04-09T04:20:32;102653.41;;;8.18;95.44
67457;BME280;54319;52.038;4.640;2023-04-09T04:22:59;102651.38;;;8.20;95.16
67457;BME280;54319;52.038;4.640;2023-04-09T04:25:25;102654.81;;;8.22;95.32
67457;BME280;54319;52.038;4.640;2023-04-09T04:27:52;102653.97;;;8.22;94.94
67457;BME280;54319;52.038;4.640;2023-04-09T04:30:19;102646.56;;;8.14;95.10
67457;BME280;54319;52.038;4.640;2023-04-09T04:32:46;102645.41;;;8.17;95.13
67457;BME280;54319;52.038;4.640;2023-04-09T04:35:14;102654.28;;;8.19;95.54
67457;BME280;54319;52.038;4.640;2023-04-09T04:37:41;102625.72;;;8.05;95.39
67457;BME280;54319;52.038;4.640;2023-04-09T04:40:08;102647.66;;;8.21;95.20
67457;BME280;54319;52.038;4.640;2023-04-09T04:42:35;102569.28;;;7.71;95.27
67457;BME280;54319;52.038;4.640;2023-04-09T04:45:01;102647.81;;;8.20;95.33
67457;BME280;54319;52.038;4.640;2023-04-09T04:47:28;102646.97;;;8.19;95.03
67457;BME280;54319;52.038;4.640;2023-04-09T04:49:54;102639.41;;;8.13;95.08
67457;BME280;54319;52.038;4.640;2023-04-09T04:52:22;102655.13;;;8.19;95.08
67457;BME280;54319;52.038;4.640;2023-04-09T04:54:49;102643.97;;;8.13;95.12
67457;BME280;54319;52.038;4.640;2023-04-09T04:57:15;102654.09;;;8.20;95.03
67457;BME280;54319;52.038;4.640;2023-04-09T04:59:42;102661.56;;;8.18;95.37
67457;BME280;54319;52.038;4.640;2023-04-09T05:02:10;102667.69;;;8.20;95.02
67457;BME280;54319;52.038;4.640;2023-04-09T05:04:36;102666.28;;;8.16;95.08
67457;BME280;54319;52.038;4.640;2023-04-09T05:07:03;102652.31;;;8.11;94.82
67457;BME280;54319;52.038;4.640;2023-04-09T05:09:31;102671.81;;;8.24;94.70
67457;BME280;54319;52.038;4.640;2023-04-09T05:11:57;102668.41;;;8.22;94.72
67457;BME280;54319;52.038;4.640;2023-04-09T05:14:24;102673.13;;;8.20;94.79
67457;BME280;54319;52.038;4.640;2023-04-09T05:16:51;102673.00;;;8.22;94.96
67457;BME280;54319;52.038;4.640;2023-04-09T05:19:17;102655.16;;;8.09;95.04
67457;BME280;54319;52.038;4.640;2023-04-09T05:21:44;102674.84;;;8.21;94.88
67457;BME280;54319;52.038;4.640;2023-04-09T05:24:10;102679.28;;;8.22;94.94
67457;BME280;54319;52.038;4.640;2023-04-09T05:26:38;102680.16;;;8.23;94.96
67457;BME280;54319;52.038;4.640;2023-04-09T05:29:05;102674.41;;;8.26;94.94
67457;BME280;54319;52.038;4.640;2023-04-09T05:31:31;102674.22;;;8.28;94.58
67457;BME280;54319;52.038;4.640;2023-04-09T05:33:58;102669.50;;;8.30;94.44
67457;BME280;54319;52.038;4.640;2023-04-09T05:36:25;102662.03;;;8.32;94.34
67457;BME280;54319;52.038;4.640;2023-04-09T05:38:51;102615.47;;;7.99;94.35
67457;BME280;54319;52.038;4.640;2023-04-09T05:41:18;102666.78;;;8.30;94.32
67457;BME280;54319;52.038;4.640;2023-04-09T05:43:46;102670.19;;;8.32;94.31
67457;BME280;54319;52.038;4.640;2023-04-09T05:46:12;102670.50;;;8.29;94.49
67457;BME280;54319;52.038;4.640;2023-04-09T05:48:39;102667.66;;;8.30;94.20
67457;BME280;54319;52.038;4.640;2023-04-09T05:51:06;102665.06;;;8.29;94.05
67457;BME280;54319;52.038;4.640;2023-04-09T05:53:33;102668.22;;;8.34;94.14
67457;BME280;54319;52.038;4.640;2023-04-09T05:56:00;102670.94;;;8.34;94.38
67457;BME280;54319;52.038;4.640;2023-04-09T05:58:28;102683.22;;;8.38;93.66
67457;BME280;54319;52.038;4.640;2023-04-09T06:00:56;102672.34;;;8.38;93.71
67457;BME280;54319;52.038;4.640;2023-04-09T06:03:22;102671.06;;;8.32;93.49
67457;BME280;54319;52.038;4.640;2023-04-09T06:05:49;102659.50;;;8.30;93.67
67457;BME280;54319;52.038;4.640;2023-04-09T06:08:15;102682.91;;;8.41;93.75
67457;BME280;54319;52.038;4.640;2023-04-09T06:10:42;102686.16;;;8.45;93.71
67457;BME280;54319;52.038;4.640;2023-04-09T06:13:09;102676.16;;;8.45;93.71
67457;BME280;54319;52.038;4.640;2023-04-09T06:15:36;102669.44;;;8.39;93.93
67457;BME280;54319;52.038;4.640;2023-04-09T06:18:04;102677.88;;;8.46;93.64
67457;BME280;54319;52.038;4.640;2023-04-09T06:20:31;102674.13;;;8.47;93.67
67457;BME280;54319;52.038;4.640;2023-04-09T06:22:57;102679.28;;;8.50;94.07
67457;BME280;54319;52.038;4.640;2023-04-09T06:25:24;102675.44;;;8.53;94.27
67457;BME280;54319;52.038;4.640;2023-04-09T06:27:51;102676.97;;;8.56;94.02
67457;BME280;54319;52.038;4.640;2023-04-09T06:30:17;102685.13;;;8.56;94.19
67457;BME280;54319;52.038;4.640;2023-04-09T06:32:44;102683.28;;;8.56;94.03
67457;BME280;54319;52.038;4.640;2023-04-09T06:35:14;102700.13;;;8.60;93.75
67457;BME280;54319;52.038;4.640;2023-04-09T06:37:40;102701.84;;;8.61;93.73
67457;BME280;54319;52.038;4.640;2023-04-09T06:40:08;102700.00;;;8.61;93.55
67457;BME280;54319;52.038;4.640;2023-04-09T06:42:34;102707.97;;;8.63;93.46
67457;BME280;54319;52.038;4.640;2023-04-09T06:45:02;102706.13;;;8.63;93.44
67457;BME280;54319;52.038;4.640;2023-04-09T06:47:32;102669.81;;;8.54;92.70
67457;BME280;54319;52.038;4.640;2023-04-09T06:49:59;102693.06;;;8.67;92.81
67457;BME280;54319;52.038;4.640;2023-04-09T06:52:27;102703.63;;;8.70;92.31
67457;BME280;54319;52.038;4.640;2023-04-09T06:54:54;102683.88;;;8.68;92.31
67457;BME280;54319;52.038;4.640;2023-04-09T06:57:21;102693.63;;;8.71;92.54
67457;BME280;54319;52.038;4.640;2023-04-09T06:59:47;102694.31;;;8.73;92.76
67457;BME280;54319;52.038;4.640;2023-04-09T07:02:14;102686.00;;;8.74;92.68
67457;BME280;54319;52.038;4.640;2023-04-09T07:04:41;102683.13;;;8.76;92.35
67457;BME280;54319;52.038;4.640;2023-04-09T07:07:07;102687.56;;;8.77;91.69
67457;BME280;54319;52.038;4.640;2023-04-09T07:09:35;102698.00;;;8.81;91.19
67457;BME280;54319;52.038;4.640;2023-04-09T07:12:02;102692.00;;;8.78;91.24
67457;BME280;54319;52.038;4.640;2023-04-09T07:14:28;102690.84;;;8.80;90.59
67457;BME280;54319;52.038;4.640;2023-04-09T07:16:55;102687.19;;;8.90;90.19
67457;BME280;54319;52.038;4.640;2023-04-09T07:19:22;102694.88;;;8.94;89.40
67457;BME280;54319;52.038;4.640;2023-04-09T07:21:50;102675.91;;;8.85;88.87
67457;BME280;54319;52.038;4.640;2023-04-09T07:24:17;102693.16;;;8.93;88.28
67457;BME280;54319;52.038;4.640;2023-04-09T07:26:45;102685.31;;;8.90;88.75
67457;BME280;54319;52.038;4.640;2023-04-09T07:29:12;102673.00;;;8.86;88.47
67457;BME280;54319;52.038;4.640;2023-04-09T07:31:38;102686.09;;;9.01;88.33
67457;BME280;54319;52.038;4.640;2023-04-09T07:34:05;102692.94;;;9.05;87.85
67457;BME280;54319;52.038;4.640;2023-04-09T07:36:32;102682.56;;;9.08;87.95
67457;BME280;54319;52.038;4.640;2023-04-09T07:38:58;102691.22;;;9.04;88.33
67457;BME280;54319;52.038;4.640;2023-04-09T07:41:25;102696.91;;;9.10;87.87
67457;BME280;54319;52.038;4.640;2023-04-09T07:43:54;102683.28;;;9.10;87.49
67457;BME280;54319;52.038;4.640;2023-04-09T07:46:21;102691.97;;;9.14;87.42
67457;BME280;54319;52.038;4.640;2023-04-09T07:48:47;102670.06;;;8.97;87.52
67457;BME280;54319;52.038;4.640;2023-04-09T07:51:15;102688.63;;;9.02;87.67
67457;BME280;54319;52.038;4.640;2023-04-09T07:53:41;102693.22;;;9.20;87.46
67457;BME280;54319;52.038;4.640;2023-04-09T07:56:08;102701.16;;;9.13;87.67
67457;BME280;54319;52.038;4.640;2023-04-09T07:58:35;102695.19;;;9.09;87.91
67457;BME280;54319;52.038;4.640;2023-04-09T08:01:04;102695.56;;;9.15;87.19
67457;BME280;54319;52.038;4.640;2023-04-09T08:03:31;102694.19;;;9.10;87.24
67457;BME280;54319;52.038;4.640;2023-04-09T08:05:57;102698.44;;;9.13;87.04
67457;BME280;54319;52.038;4.640;2023-04-09T08:08:24;102694.88;;;9.12;86.85
67457;BME280;54319;52.038;4.640;2023-04-09T08:10:51;102691.47;;;9.10;87.44
67457;BME280;54319;52.038;4.640;2023-04-09T08:13:17;102688.88;;;9.09;87.21
67457;BME280;54319;52.038;4.640;2023-04-09T08:15:44;102689.19;;;9.06;87.80
67457;BME280;54319;52.038;4.640;2023-04-09T08:18:12;102688.78;;;9.19;87.02
67457;BME280;54319;52.038;4.640;2023-04-09T08:20:39;102693.38;;;9.18;86.96
67457;BME280;54319;52.038;4.640;2023-04-09T08:23:09;102697.97;;;9.18;86.54
67457;BME280;54319;52.038;4.640;2023-04-09T08:25:36;102692.28;;;9.11;86.79
67457;BME280;54319;52.038;4.640;2023-04-09T08:28:02;102700.63;;;9.09;86.81
67457;BME280;54319;52.038;4.640;2023-04-09T08:30:29;102698.34;;;9.23;86.07
67457;BME280;54319;52.038;4.640;2023-04-09T08:32:58;102698.69;;;9.20;86.25
67457;BME280;54319;52.038;4.640;2023-04-09T08:35:26;102699.81;;;9.17;86.91
67457;BME280;54319;52.038;4.640;2023-04-09T08:37:54;102698.81;;;9.18;86.67
67457;BME280;54319;52.038;4.640;2023-04-09T08:40:20;102703.56;;;9.16;85.75
67457;BME280;54319;52.038;4.640;2023-04-09T08:42:52;102706.84;;;9.20;85.82
67457;BME280;54319;52.038;4.640;2023-04-09T08:45:20;102706.97;;;9.18;85.56
67457;BME280;54319;52.038;4.640;2023-04-09T08:47:48;102707.53;;;9.22;85.77
67457;BME280;54319;52.038;4.640;2023-04-09T08:50:15;102707.47;;;9.14;86.19
67457;BME280;54319;52.038;4.640;2023-04-09T08:52:45;102715.41;;;9.25;85.50
67457;BME280;54319;52.038;4.640;2023-04-09T08:55:12;102712.25;;;9.38;85.11
67457;BME280;54319;52.038;4.640;2023-04-09T08:57:38;102711.47;;;9.27;85.24
67457;BME280;54319;52.038;4.640;2023-04-09T09:00:06;102707.59;;;9.30;84.88
67457;BME280;54319;52.038;4.640;2023-04-09T09:02:33;102684.75;;;9.23;84.38
67457;BME280;54319;52.038;4.640;2023-04-09T09:05:00;102701.50;;;9.36;83.87
67457;BME280;54319;52.038;4.640;2023-04-09T09:07:27;102695.00;;;9.29;84.34
67457;BME280;54319;52.038;4.640;2023-04-09T09:09:57;102698.72;;;9.28;84.92
67457;BME280;54319;52.038;4.640;2023-04-09T09:12:35;102703.09;;;9.39;84.81
67457;BME280;54319;52.038;4.640;2023-04-09T09:15:03;102703.78;;;9.41;83.77
67457;BME280;54319;52.038;4.640;2023-04-09T09:17:30;102702.22;;;9.38;83.42
67457;BME280;54319;52.038;4.640;2023-04-09T09:19:57;102710.66;;;9.53;83.10
67457;BME280;54319;52.038;4.640;2023-04-09T09:22:24;102703.19;;;9.55;82.97
67457;BME280;54319;52.038;4.640;2023-04-09T09:24:51;102713.06;;;9.56;82.17
67457;BME280;54319;52.038;4.640;2023-04-09T09:27:33;102700.88;;;9.43;82.56
67457;BME280;54319;52.038;4.640;2023-04-09T09:30:01;102698.56;;;9.48;82.91
67457;BME280;54319;52.038;4.640;2023-04-09T09:32:29;102699.03;;;9.69;81.65
67457;BME280;54319;52.038;4.640;2023-04-09T09:35:01;102694.25;;;9.72;81.69
67457;BME280;54319;52.038;4.640;2023-04-09T09:37:28;102690.06;;;9.77;80.63
67457;BME280;54319;52.038;4.640;2023-04-09T09:39:55;102687.22;;;9.87;80.64
67457;BME280;54319;52.038;4.640;2023-04-09T09:42:22;102683.88;;;10.02;80.48
67457;BME280;54319;52.038;4.640;2023-04-09T09:44:52;102683.44;;;10.23;79.43
67457;BME280;54319;52.038;4.640;2023-04-09T09:47:21;102682.97;;;10.36;79.23
67457;BME280;54319;52.038;4.640;2023-04-09T09:49:50;102677.25;;;10.47;78.20
67457;BME280;54319;52.038;4.640;2023-04-09T09:52:21;102682.22;;;10.60;77.35
67457;BME280;54319;52.038;4.640;2023-04-09T09:54:50;102674.56;;;10.64;77.29
67457;BME280;54319;52.038;4.640;2023-04-09T09:57:18;102671.84;;;10.64;77.63
67457;BME280;54319;52.038;4.640;2023-04-09T09:59:49;102669.81;;;10.74;76.79
67457;BME280;54319;52.038;4.640;2023-04-09T10:02:20;102668.44;;;10.78;77.14
67457;BME280;54319;52.038;4.640;2023-04-09T10:04:49;102649.31;;;10.86;76.34
67457;BME280;54319;52.038;4.640;2023-04-09T10:07:18;102646.59;;;11.11;77.45
67457;BME280;54319;52.038;4.640;2023-04-09T10:09:48;102655.81;;;11.27;76.51
67457;BME280;54319;52.038;4.640;2023-04-09T10:12:15;102653.41;;;11.49;75.93
67457;BME280;54319;52.038;4.640;2023-04-09T10:14:42;102642.41;;;11.65;74.42
67457;BME280;54319;52.038;4.640;2023-04-09T10:17:10;102647.44;;;12.01;73.14
67457;BME280;54319;52.038;4.640;2023-04-09T10:19:41;102644.59;;;12.26;71.82
67457;BME280;54319;52.038;4.640;2023-04-09T10:22:11;102646.31;;;12.27;71.83
67457;BME280;54319;52.038;4.640;2023-04-09T10:24:40;102638.03;;;12.36;71.50
67457;BME280;54319;52.038;4.640;2023-04-09T10:27:11;102639.56;;;12.38;70.16
67457;BME280;54319;52.038;4.640;2023-04-09T10:29:42;102648.06;;;12.12;70.73
67457;BME280;54319;52.038;4.640;2023-04-09T10:32:11;102643.88;;;12.33;69.08
67457;BME280;54319;52.038;4.640;2023-04-09T10:34:39;102639.84;;;12.20;71.52
67457;BME280;54319;52.038;4.640;2023-04-09T10:37:07;102629.56;;;12.22;70.54
67457;BME280;54319;52.038;4.640;2023-04-09T10:39:38;102631.81;;;12.19;71.22
67457;BME280;54319;52.038;4.640;2023-04-09T10:42:07;102631.09;;;12.48;69.36
67457;BME280;54319;52.038;4.640;2023-04-09T10:44:38;102622.09;;;12.16;69.84
67457;BME280;54319;52.038;4.640;2023-04-09T10:47:07;102639.78;;;12.28;70.74
67457;BME280;54319;52.038;4.640;2023-04-09T10:49:36;102625.25;;;12.28;70.67
67457;BME280;54319;52.038;4.640;2023-04-09T10:52:05;102615.19;;;12.52;71.32
67457;BME280;54319;52.038;4.640;2023-04-09T10:54:44;102600.22;;;12.63;67.95
67457;BME280;54319;52.038;4.640;2023-04-09T10:57:16;102609.91;;;12.50;70.10
67457;BME280;54319;52.038;4.640;2023-04-09T10:59:44;102612.56;;;12.82;68.17
67457;BME280;54319;52.038;4.640;2023-04-09T11:02:32;102609.78;;;13.05;68.68
67457;BME280;54319;52.038;4.640;2023-04-09T11:05:17;102607.28;;;13.34;68.23
67457;BME280;54319;52.038;4.640;2023-04-09T11:07:50;102600.03;;;13.26;66.82
67457;BME280;54319;52.038;4.640;2023-04-09T11:10:18;102571.47;;;13.35;66.14
67457;BME280;54319;52.038;4.640;2023-04-09T11:12:45;102593.44;;;13.65;66.72
67457;BME280;54319;52.038;4.640;2023-04-09T11:15:15;102591.53;;;13.81;65.00
67457;BME280;54319;52.038;4.640;2023-04-09T11:17:42;102590.91;;;14.00;65.07
67457;BME280;54319;52.038;4.640;2023-04-09T11:20:09;102579.63;;;14.10;63.49
67457;BME280;54319;52.038;4.640;2023-04-09T11:22:37;102575.69;;;14.35;64.10
67457;BME280;54319;52.038;4.640;2023-04-09T11:25:07;102583.06;;;14.34;64.69
67457;BME280;54319;52.038;4.640;2023-04-09T11:27:36;102581.63;;;14.01;64.31
67457;BME280;54319;52.038;4.640;2023-04-09T11:30:03;102575.63;;;13.91;64.37
67457;BME280;54319;52.038;4.640;2023-04-09T11:32:30;102585.78;;;14.12;65.23
67457;BME280;54319;52.038;4.640;2023-04-09T11:34:57;102575.88;;;14.33;63.60
67457;BME280;54319;52.038;4.640;2023-04-09T11:37:24;102563.00;;;14.12;64.77
67457;BME280;54319;52.038;4.640;2023-04-09T11:39:52;102563.47;;;14.81;64.00
67457;BME280;54319;52.038;4.640;2023-04-09T11:42:20;102564.88;;;15.27;61.82
67457;BME280;54319;52.038;4.640;2023-04-09T11:44:47;102548.63;;;15.32;60.77
67457;BME280;54319;52.038;4.640;2023-04-09T11:47:15;102527.59;;;15.17;59.35
67457;BME280;54319;52.038;4.640;2023-04-09T11:49:43;102568.66;;;15.61;61.11
67457;BME280;54319;52.038;4.640;2023-04-09T11:52:11;102560.16;;;15.98;58.61
67457;BME280;54319;52.038;4.640;2023-04-09T11:54:37;102565.47;;;15.99;58.75
67457;BME280;54319;52.038;4.640;2023-04-09T11:57:04;102562.53;;;16.08;57.95
67457;BME280;54319;52.038;4.640;2023-04-09T11:59:33;102563.56;;;15.58;59.25
67457;BME280;54319;52.038;4.640;2023-04-09T12:01:59;102557.94;;;15.80;59.45
67457;BME280;54319;52.038;4.640;2023-04-09T12:04:26;102565.59;;;15.84;58.21
67457;BME280;54319;52.038;4.640;2023-04-09T12:06:55;102548.81;;;15.72;59.02
67457;BME280;54319;52.038;4.640;2023-04-09T12:09:22;102554.28;;;15.66;59.43
67457;BME280;54319;52.038;4.640;2023-04-09T12:11:49;102541.97;;;15.55;59.14
67457;BME280;54319;52.038;4.640;2023-04-09T12:14:17;102552.13;;;15.54;59.27
67457;BME280;54319;52.038;4.640;2023-04-09T12:16:50;102558.53;;;15.68;59.65
67457;BME280;54319;52.038;4.640;2023-04-09T12:19:16;102554.53;;;15.77;58.01
67457;BME280;54319;52.038;4.640;2023-04-09T12:21:45;102549.63;;;15.66;59.05
67457;BME280;54319;52.038;4.640;2023-04-09T12:24:12;102548.72;;;15.94;58.29
67457;BME280;54319;52.038;4.640;2023-04-09T12:26:39;102540.47;;;16.01;57.13
67457;BME280;54319;52.038;4.640;2023-04-09T12:29:06;102538.44;;;16.43;56.21
67457;BME280;54319;52.038;4.640;2023-04-09T12:31:33;102537.81;;;16.88;56.38
67457;BME280;54319;52.038;4.640;2023-04-09T12:34:01;102546.94;;;16.69;53.85
67457;BME280;54319;52.038;4.640;2023-04-09T12:36:28;102545.19;;;16.20;55.10
67457;BME280;54319;52.038;4.640;2023-04-09T12:38:54;102552.22;;;16.70;55.95
67457;BME280;54319;52.038;4.640;2023-04-09T12:41:21;102552.47;;;16.69;55.31
67457;BME280;54319;52.038;4.640;2023-04-09T12:43:47;102544.19;;;16.82;55.63
67457;BME280;54319;52.038;4.640;2023-04-09T12:46:14;102547.59;;;17.11;53.63
67457;BME280;54319;52.038;4.640;2023-04-09T12:48:41;102547.13;;;16.47;55.00
67457;BME280;54319;52.038;4.640;2023-04-09T12:51:11;102548.81;;;16.34;56.79
67457;BME280;54319;52.038;4.640;2023-04-09T12:53:37;102541.63;;;16.60;53.23
67457;BME280;54319;52.038;4.640;2023-04-09T12:56:05;102536.53;;;16.44;55.04
67457;BME280;54319;52.038;4.640;2023-04-09T12:58:32;102548.63;;;16.83;53.55